sensor_id;sensor_type;location;lat;lon;timestamp;P1;durP1;ratioP1;P2;durP2;ratioP2
7903;SDS011;3997;48.416;8.512;2023-06-26T00:02:12;9.75;;;9.05;;
7903;SDS011;3997;48.416;8.512;2023-06-26T00:04:39;10.35;;;9.55;;
7903;SDS011;3997;48.416;8.512;2023-06-26T00:07:05;10.30;;;9.35;;
7903;SDS011;3997;48.416;8.512;2023-06-26T00:09:32;9.80;;;9.00;;
7903;SDS011;3997;48.416;8.512;2023-06-26T00:11:58;9.55;;;8.85;;
7903;SDS011;3997;48.416;8.512;2023-06-26T00:14:26;10.10;;;9.27;;
7903;SDS011;3997;48.416;8.512;2023-06-26T00:16:53;10.27;;;9.35;;
7903;SDS011;3997;48.416;8.512;2023-06-26T00:19:19;9.45;;;8.65;;
7903;SDS011;3997;48.416;8.512;2023-06-26T00:21:46;10.07;;;9.38;;
7903;SDS011;3997;48.416;8.512;2023-06-26T00:24:13;9.50;;;8.80;;
7903;SDS011;3997;48.416;8.512;2023-06-26T00:26:39;9.20;;;8.50;;
7903;SDS011;3997;48.416;8.512;2023-06-26T00:29:06;9.50;;;8.70;;
7903;SDS011;3997;48.416;8.512;2023-06-26T00:31:34;9.27;;;8.57;;
7903;SDS011;3997;48.416;8.512;2023-06-26T00:34:00;10.43;;;9.60;;
7903;SDS011;3997;48.416;8.512;2023-06-26T00:36:27;9.77;;;9.07;;
7903;SDS011;3997;48.416;8.512;2023-06-26T00:38:53;10.30;;;9.50;;
7903;SDS011;3997;48.416;8.512;2023-06-26T00:41:19;10.35;;;9.43;;
7903;SDS011;3997;48.416;8.512;2023-06-26T00:43:46;10.20;;;9.40;;
7903;SDS011;3997;48.416;8.512;2023-06-26T00:46:13;9.98;;;9.27;;
7903;SDS011;3997;48.416;8.512;2023-06-26T00:48:41;10.07;;;9.27;;
7903;SDS011;3997;48.416;8.512;2023-06-26T00:51:08;10.10;;;9.30;;
7903;SDS011;3997;48.416;8.512;2023-06-26T00:53:34;10.65;;;9.75;;
7903;SDS011;3997;48.416;8.512;2023-06-26T00:56:01;11.18;;;10.27;;
7903;SDS011;3997;48.416;8.512;2023-06-26T00:58:28;10.45;;;9.65;;
7903;SDS011;3997;48.416;8.512;2023-06-26T01:00:54;10.98;;;10.18;;
7903;SDS011;3997;48.416;8.512;2023-06-26T01:03:21;10.68;;;9.82;;
7903;SDS011;3997;48.416;8.512;2023-06-26T01:05:49;11.43;;;10.32;;
7903;SDS011;3997;48.416;8.512;2023-06-26T01:08:16;10.38;;;9.57;;
7903;SDS011;3997;48.416;8.512;2023-06-26T01:10:43;9.57;;;8.88;;
7903;SDS011;3997;48.416;8.512;2023-06-26T01:13:11;10.68;;;9.88;;
7903;SDS011;3997;48.416;8.512;2023-06-26T01:15:38;11.23;;;10.32;;
7903;SDS011;3997;48.416;8.512;2023-06-26T01:18:05;10.88;;;10.07;;
7903;SDS011;3997;48.416;8.512;2023-06-26T01:20:32;10.45;;;9.60;;
7903;SDS011;3997;48.416;8.512;2023-06-26T01:23:05;10.68;;;9.77;;
7903;SDS011;3997;48.416;8.512;2023-06-26T01:25:35;11.30;;;10.40;;
7903;SDS011;3997;48.416;8.512;2023-06-26T01:28:05;10.75;;;9.95;;
7903;SDS011;3997;48.416;8.512;2023-06-26T01:30:32;10.93;;;10.02;;
7903;SDS011;3997;48.416;8.512;2023-06-26T01:32:59;11.18;;;10.27;;
7903;SDS011;3997;48.416;8.512;2023-06-26T01:35:26;11.02;;;10.02;;
7903;SDS011;3997;48.416;8.512;2023-06-26T01:37:52;10.65;;;9.80;;
7903;SDS011;3997;48.416;8.512;2023-06-26T01:40:19;11.25;;;10.25;;
7903;SDS011;3997;48.416;8.512;2023-06-26T01:42:45;10.55;;;9.65;;
7903;SDS011;3997;48.416;8.512;2023-06-26T01:45:14;11.00;;;10.10;;
7903;SDS011;3997;48.416;8.512;2023-06-26T01:47:44;10.43;;;9.65;;
7903;SDS011;3997;48.416;8.512;2023-06-26T01:50:14;10.45;;;9.65;;
7903;SDS011;3997;48.416;8.512;2023-06-26T01:52:43;11.23;;;10.32;;
7903;SDS011;3997;48.416;8.512;2023-06-26T01:55:12;11.05;;;10.15;;
7903;SDS011;3997;48.416;8.512;2023-06-26T01:57:41;10.60;;;9.80;;
7903;SDS011;3997;48.416;8.512;2023-06-26T02:00:08;10.73;;;9.82;;
7903;SDS011;3997;48.416;8.512;2023-06-26T02:02:37;10.77;;;9.90;;
7903;SDS011;3997;48.416;8.512;2023-06-26T02:05:04;13.80;;;10.32;;
7903;SDS011;3997;48.416;8.512;2023-06-26T02:07:30;10.48;;;9.57;;
7903;SDS011;3997;48.416;8.512;2023-06-26T02:09:56;10.35;;;9.55;;
7903;SDS011;3997;48.416;8.512;2023-06-26T02:12:23;10.80;;;9.90;;
7903;SDS011;3997;48.416;8.512;2023-06-26T02:14:49;10.50;;;9.60;;
7903;SDS011;3997;48.416;8.512;2023-06-26T02:17:16;10.25;;;9.43;;
7903;SDS011;3997;48.416;8.512;2023-06-26T02:19:44;9.55;;;8.82;;
7903;SDS011;3997;48.416;8.512;2023-06-26T02:22:12;10.05;;;9.15;;
7903;SDS011;3997;48.416;8.512;2023-06-26T02:24:39;10.00;;;9.20;;
7903;SDS011;3997;48.416;8.512;2023-06-26T02:27:05;10.15;;;9.15;;
7903;SDS011;3997;48.416;8.512;2023-06-26T02:29:31;10.50;;;9.65;;
7903;SDS011;3997;48.416;8.512;2023-06-26T02:31:58;9.60;;;8.90;;
7903;SDS011;3997;48.416;8.512;2023-06-26T02:34:24;9.73;;;8.93;;
7903;SDS011;3997;48.416;8.512;2023-06-26T02:36:52;10.00;;;9.20;;
7903;SDS011;3997;48.416;8.512;2023-06-26T02:39:20;9.38;;;8.68;;
7903;SDS011;3997;48.416;8.512;2023-06-26T02:41:46;9.75;;;8.95;;
7903;SDS011;3997;48.416;8.512;2023-06-26T02:44:13;9.75;;;9.05;;
7903;SDS011;3997;48.416;8.512;2023-06-26T02:46:39;9.90;;;9.10;;
7903;SDS011;3997;48.416;8.512;2023-06-26T02:49:06;9.82;;;9.02;;
7903;SDS011;3997;48.416;8.512;2023-06-26T02:51:32;9.43;;;8.73;;
7903;SDS011;3997;48.416;8.512;2023-06-26T02:54:00;9.18;;;8.45;;
7903;SDS011;3997;48.416;8.512;2023-06-26T02:56:27;9.38;;;8.68;;
7903;SDS011;3997;48.416;8.512;2023-06-26T02:58:54;9.73;;;8.98;;
7903;SDS011;3997;48.416;8.512;2023-06-26T03:01:20;10.15;;;9.20;;
7903;SDS011;3997;48.416;8.512;2023-06-26T03:03:47;9.73;;;8.98;;
7903;SDS011;3997;48.416;8.512;2023-06-26T03:06:13;9.48;;;8.63;;
7903;SDS011;3997;48.416;8.512;2023-06-26T03:08:40;9.65;;;8.90;;
7903;SDS011;3997;48.416;8.512;2023-06-26T03:11:08;10.23;;;9.32;;
7903;SDS011;3997;48.416;8.512;2023-06-26T03:13:35;9.43;;;8.73;;
7903;SDS011;3997;48.416;8.512;2023-06-26T03:16:02;9.40;;;8.57;;
7903;SDS011;3997;48.416;8.512;2023-06-26T03:18:28;9.40;;;8.70;;
7903;SDS011;3997;48.416;8.512;2023-06-26T03:20:55;9.50;;;8.60;;
7903;SDS011;3997;48.416;8.512;2023-06-26T03:23:22;9.35;;;8.55;;
7903;SDS011;3997;48.416;8.512;2023-06-26T03:25:48;10.23;;;9.05;;
7903;SDS011;3997;48.416;8.512;2023-06-26T03:28:16;9.00;;;8.30;;
7903;SDS011;3997;48.416;8.512;2023-06-26T03:30:43;9.45;;;8.65;;
7903;SDS011;3997;48.416;8.512;2023-06-26T03:33:09;9.32;;;8.63;;
7903;SDS011;3997;48.416;8.512;2023-06-26T03:35:36;9.57;;;8.82;;
7903;SDS011;3997;48.416;8.512;2023-06-26T03:38:03;9.35;;;8.65;;
7903;SDS011;3997;48.416;8.512;2023-06-26T03:40:29;9.65;;;8.93;;
7903;SDS011;3997;48.416;8.512;2023-06-26T03:42:56;9.25;;;8.45;;
7903;SDS011;3997;48.416;8.512;2023-06-26T03:45:24;8.70;;;8.00;;
7903;SDS011;3997;48.416;8.512;2023-06-26T03:47:50;10.00;;;9.23;;
7903;SDS011;3997;48.416;8.512;2023-06-26T03:50:17;10.02;;;9.23;;
7903;SDS011;3997;48.416;8.512;2023-06-26T03:52:43;9.25;;;8.45;;
7903;SDS011;3997;48.416;8.512;2023-06-26T03:55:10;9.02;;;8.40;;
7903;SDS011;3997;48.416;8.512;2023-06-26T03:57:37;9.55;;;8.77;;
7903;SDS011;3997;48.416;8.512;2023-06-26T04:00:03;10.05;;;9.25;;
7903;SDS011;3997;48.416;8.512;2023-06-26T04:02:34;9.80;;;9.00;;
7903;SDS011;3997;48.416;8.512;2023-06-26T04:05:01;9.57;;;8.88;;
7903;SDS011;3997;48.416;8.512;2023-06-26T04:07:28;10.00;;;9.20;;
7903;SDS011;3997;48.416;8.512;2023-06-26T04:09:56;10.00;;;9.20;;
7903;SDS011;3997;48.416;8.512;2023-06-26T04:12:22;10.02;;;9.27;;
7903;SDS011;3997;48.416;8.512;2023-06-26T04:14:49;10.00;;;9.20;;
7903;SDS011;3997;48.416;8.512;2023-06-26T04:17:15;9.65;;;8.85;;
7903;SDS011;3997;48.416;8.512;2023-06-26T04:19:43;10.07;;;9.18;;
7903;SDS011;3997;48.416;8.512;2023-06-26T04:22:09;10.57;;;9.75;;
7903;SDS011;3997;48.416;8.512;2023-06-26T04:24:36;10.57;;;9.73;;
7903;SDS011;3997;48.416;8.512;2023-06-26T04:27:02;10.60;;;9.70;;
7903;SDS011;3997;48.416;8.512;2023-06-26T04:29:29;10.27;;;9.48;;
7903;SDS011;3997;48.416;8.512;2023-06-26T04:31:56;10.07;;;9.38;;
7903;SDS011;3997;48.416;8.512;2023-06-26T04:34:23;9.88;;;9.18;;
7903;SDS011;3997;48.416;8.512;2023-06-26T04:36:51;10.88;;;10.07;;
7903;SDS011;3997;48.416;8.512;2023-06-26T04:39:17;10.20;;;9.45;;
7903;SDS011;3997;48.416;8.512;2023-06-26T04:41:44;10.27;;;9.48;;
7903;SDS011;3997;48.416;8.512;2023-06-26T04:44:11;10.32;;;9.57;;
7903;SDS011;3997;48.416;8.512;2023-06-26T04:46:37;9.98;;;9.27;;
7903;SDS011;3997;48.416;8.512;2023-06-26T04:49:06;10.48;;;9.57;;
7903;SDS011;3997;48.416;8.512;2023-06-26T04:51:32;10.68;;;9.70;;
7903;SDS011;3997;48.416;8.512;2023-06-26T04:54:00;9.60;;;8.80;;
7903;SDS011;3997;48.416;8.512;2023-06-26T04:56:26;10.05;;;9.25;;
7903;SDS011;3997;48.416;8.512;2023-06-26T04:58:53;10.18;;;9.38;;
7903;SDS011;3997;48.416;8.512;2023-06-26T05:01:19;10.52;;;9.73;;
7903;SDS011;3997;48.416;8.512;2023-06-26T05:03:46;9.95;;;9.15;;
7903;SDS011;3997;48.416;8.512;2023-06-26T05:06:12;10.45;;;9.55;;
7903;SDS011;3997;48.416;8.512;2023-06-26T05:08:39;10.82;;;9.85;;
7903;SDS011;3997;48.416;8.512;2023-06-26T05:11:07;10.57;;;9.70;;
7903;SDS011;3997;48.416;8.512;2023-06-26T05:13:33;9.73;;;9.02;;
7903;SDS011;3997;48.416;8.512;2023-06-26T05:16:00;10.15;;;9.25;;
7903;SDS011;3997;48.416;8.512;2023-06-26T05:18:26;9.35;;;8.65;;
7903;SDS011;3997;48.416;8.512;2023-06-26T05:20:53;9.00;;;8.40;;
7903;SDS011;3997;48.416;8.512;2023-06-26T05:23:19;9.27;;;8.57;;
7903;SDS011;3997;48.416;8.512;2023-06-26T05:25:48;9.20;;;8.55;;
7903;SDS011;3997;48.416;8.512;2023-06-26T05:28:17;10.13;;;9.27;;
7903;SDS011;3997;48.416;8.512;2023-06-26T05:30:43;10.90;;;10.10;;
7903;SDS011;3997;48.416;8.512;2023-06-26T05:33:10;9.82;;;9.05;;
7903;SDS011;3997;48.416;8.512;2023-06-26T05:35:37;9.13;;;8.43;;
7903;SDS011;3997;48.416;8.512;2023-06-26T05:38:03;9.13;;;8.35;;
7903;SDS011;3997;48.416;8.512;2023-06-26T05:40:30;9.07;;;8.38;;
7903;SDS011;3997;48.416;8.512;2023-06-26T05:42:57;10.02;;;9.13;;
7903;SDS011;3997;48.416;8.512;2023-06-26T05:45:24;9.90;;;9.20;;
7903;SDS011;3997;48.416;8.512;2023-06-26T05:47:51;9.60;;;8.90;;
7903;SDS011;3997;48.416;8.512;2023-06-26T05:50:18;9.75;;;9.05;;
7903;SDS011;3997;48.416;8.512;2023-06-26T05:52:45;9.27;;;8.48;;
7903;SDS011;3997;48.416;8.512;2023-06-26T05:55:12;8.88;;;8.23;;
7903;SDS011;3997;48.416;8.512;2023-06-26T05:57:39;9.15;;;8.45;;
7903;SDS011;3997;48.416;8.512;2023-06-26T06:00:06;9.77;;;9.07;;
7903;SDS011;3997;48.416;8.512;2023-06-26T06:02:37;9.65;;;8.85;;
7903;SDS011;3997;48.416;8.512;2023-06-26T06:05:04;9.05;;;8.35;;
7903;SDS011;3997;48.416;8.512;2023-06-26T06:07:30;9.27;;;8.48;;
7903;SDS011;3997;48.416;8.512;2023-06-26T06:09:57;8.77;;;8.07;;
7903;SDS011;3997;48.416;8.512;2023-06-26T06:12:23;8.98;;;8.30;;
7903;SDS011;3997;48.416;8.512;2023-06-26T06:14:51;9.77;;;8.98;;
7903;SDS011;3997;48.416;8.512;2023-06-26T06:17:17;8.75;;;8.05;;
7903;SDS011;3997;48.416;8.512;2023-06-26T06:19:45;8.55;;;7.80;;
7903;SDS011;3997;48.416;8.512;2023-06-26T06:22:11;8.20;;;7.60;;
7903;SDS011;3997;48.416;8.512;2023-06-26T06:24:38;8.52;;;7.82;;
7903;SDS011;3997;48.416;8.512;2023-06-26T06:27:05;8.57;;;7.97;;
7903;SDS011;3997;48.416;8.512;2023-06-26T06:29:31;8.68;;;7.97;;
7903;SDS011;3997;48.416;8.512;2023-06-26T06:31:58;8.20;;;7.60;;
7903;SDS011;3997;48.416;8.512;2023-06-26T06:34:24;8.15;;;7.65;;
7903;SDS011;3997;48.416;8.512;2023-06-26T06:36:52;8.68;;;7.88;;
7903;SDS011;3997;48.416;8.512;2023-06-26T06:39:18;8.60;;;8.00;;
7903;SDS011;3997;48.416;8.512;2023-06-26T06:41:45;8.20;;;7.60;;
7903;SDS011;3997;48.416;8.512;2023-06-26T06:44:13;8.70;;;8.00;;
7903;SDS011;3997;48.416;8.512;2023-06-26T06:46:39;8.85;;;8.25;;
7903;SDS011;3997;48.416;8.512;2023-06-26T06:49:06;7.82;;;7.32;;
7903;SDS011;3997;48.416;8.512;2023-06-26T06:51:32;8.20;;;7.60;;
7903;SDS011;3997;48.416;8.512;2023-06-26T06:54:00;7.47;;;6.88;;
7903;SDS011;3997;48.416;8.512;2023-06-26T06:56:27;7.95;;;7.45;;
7903;SDS011;3997;48.416;8.512;2023-06-26T06:58:53;7.80;;;7.15;;
7903;SDS011;3997;48.416;8.512;2023-06-26T07:01:20;8.40;;;7.80;;
7903;SDS011;3997;48.416;8.512;2023-06-26T07:03:46;7.57;;;7.07;;
7903;SDS011;3997;48.416;8.512;2023-06-26T07:06:12;8.40;;;7.80;;
7903;SDS011;3997;48.416;8.512;2023-06-26T07:08:39;8.65;;;7.95;;
7903;SDS011;3997;48.416;8.512;2023-06-26T07:11:07;7.80;;;7.20;;
7903;SDS011;3997;48.416;8.512;2023-06-26T07:13:33;8.13;;;7.47;;
7903;SDS011;3997;48.416;8.512;2023-06-26T07:15:59;8.13;;;7.53;;
7903;SDS011;3997;48.416;8.512;2023-06-26T07:18:26;8.18;;;7.68;;
7903;SDS011;3997;48.416;8.512;2023-06-26T07:20:52;7.57;;;7.10;;
7903;SDS011;3997;48.416;8.512;2023-06-26T07:23:19;7.93;;;7.43;;
7903;SDS011;3997;48.416;8.512;2023-06-26T07:25:45;7.78;;;7.28;;
7903;SDS011;3997;48.416;8.512;2023-06-26T07:28:13;8.25;;;7.65;;
7903;SDS011;3997;48.416;8.512;2023-06-26T07:30:40;8.20;;;7.70;;
7903;SDS011;3997;48.416;8.512;2023-06-26T07:33:06;7.78;;;7.28;;
7903;SDS011;3997;48.416;8.512;2023-06-26T07:35:32;7.97;;;7.40;;
7903;SDS011;3997;48.416;8.512;2023-06-26T07:37:59;8.48;;;7.88;;
7903;SDS011;3997;48.416;8.512;2023-06-26T07:40:25;8.27;;;7.78;;
7903;SDS011;3997;48.416;8.512;2023-06-26T07:42:52;7.40;;;7.00;;
7903;SDS011;3997;48.416;8.512;2023-06-26T07:45:20;8.48;;;7.75;;
7903;SDS011;3997;48.416;8.512;2023-06-26T07:47:47;8.23;;;7.68;;
7903;SDS011;3997;48.416;8.512;2023-06-26T07:50:13;8.32;;;7.63;;
7903;SDS011;3997;48.416;8.512;2023-06-26T07:52:44;7.57;;;7.07;;
7903;SDS011;3997;48.416;8.512;2023-06-26T07:55:11;7.75;;;7.05;;
7903;SDS011;3997;48.416;8.512;2023-06-26T07:57:37;7.65;;;7.15;;
7903;SDS011;3997;48.416;8.512;2023-06-26T08:00:04;8.20;;;7.70;;
7903;SDS011;3997;48.416;8.512;2023-06-26T08:02:33;8.20;;;7.60;;
7903;SDS011;3997;48.416;8.512;2023-06-26T08:04:59;8.07;;;7.40;;
7903;SDS011;3997;48.416;8.512;2023-06-26T08:07:26;8.00;;;7.50;;
7903;SDS011;3997;48.416;8.512;2023-06-26T08:09:52;8.40;;;7.72;;
7903;SDS011;3997;48.416;8.512;2023-06-26T08:12:18;7.57;;;7.07;;
7903;SDS011;3997;48.416;8.512;2023-06-26T08:14:45;8.13;;;7.63;;
7903;SDS011;3997;48.416;8.512;2023-06-26T08:17:12;8.13;;;7.63;;
7903;SDS011;3997;48.416;8.512;2023-06-26T08:19:39;8.15;;;7.40;;
7903;SDS011;3997;48.416;8.512;2023-06-26T08:22:06;8.57;;;7.88;;
7903;SDS011;3997;48.416;8.512;2023-06-26T08:24:32;8.32;;;7.82;;
7903;SDS011;3997;48.416;8.512;2023-06-26T08:26:59;8.05;;;7.45;;
7903;SDS011;3997;48.416;8.512;2023-06-26T08:29:25;8.25;;;7.75;;
7903;SDS011;3997;48.416;8.512;2023-06-26T08:31:51;8.48;;;7.90;;
7903;SDS011;3997;48.416;8.512;2023-06-26T08:34:18;8.32;;;7.63;;
7903;SDS011;3997;48.416;8.512;2023-06-26T08:36:46;8.55;;;7.85;;
7903;SDS011;3997;48.416;8.512;2023-06-26T08:39:12;8.35;;;7.85;;
7903;SDS011;3997;48.416;8.512;2023-06-26T08:41:38;8.20;;;7.68;;
7903;SDS011;3997;48.416;8.512;2023-06-26T08:44:05;8.27;;;7.78;;
7903;SDS011;3997;48.416;8.512;2023-06-26T08:46:31;8.10;;;7.60;;
7903;SDS011;3997;48.416;8.512;2023-06-26T08:49:00;7.93;;;7.43;;
7903;SDS011;3997;48.416;8.512;2023-06-26T08:51:28;7.65;;;7.15;;
7903;SDS011;3997;48.416;8.512;2023-06-26T08:53:57;8.25;;;7.57;;
7903;SDS011;3997;48.416;8.512;2023-06-26T08:56:25;8.00;;;7.50;;
7903;SDS011;3997;48.416;8.512;2023-06-26T08:58:52;7.68;;;7.22;;
7903;SDS011;3997;48.416;8.512;2023-06-26T09:01:19;8.15;;;7.65;;
7903;SDS011;3997;48.416;8.512;2023-06-26T09:03:46;7.72;;;7.22;;
7903;SDS011;3997;48.416;8.512;2023-06-26T09:06:13;8.00;;;7.43;;
7903;SDS011;3997;48.416;8.512;2023-06-26T09:08:39;7.82;;;7.32;;
7903;SDS011;3997;48.416;8.512;2023-06-26T09:11:07;7.68;;;7.18;;
7903;SDS011;3997;48.416;8.512;2023-06-26T09:13:33;7.63;;;7.13;;
7903;SDS011;3997;48.416;8.512;2023-06-26T09:16:03;26.90;;;11.30;;
7903;SDS011;3997;48.416;8.512;2023-06-26T09:18:30;8.52;;;7.85;;
7903;SDS011;3997;48.416;8.512;2023-06-26T09:20:57;7.93;;;7.43;;
7903;SDS011;3997;48.416;8.512;2023-06-26T09:23:24;7.88;;;7.38;;
7903;SDS011;3997;48.416;8.512;2023-06-26T09:25:51;7.88;;;7.38;;
7903;SDS011;3997;48.416;8.512;2023-06-26T09:28:19;8.00;;;7.30;;
7903;SDS011;3997;48.416;8.512;2023-06-26T09:30:45;7.72;;;6.93;;
7903;SDS011;3997;48.416;8.512;2023-06-26T09:33:15;8.27;;;7.78;;
7903;SDS011;3997;48.416;8.512;2023-06-26T09:35:42;8.07;;;7.30;;
7903;SDS011;3997;48.416;8.512;2023-06-26T09:38:08;7.68;;;7.28;;
7903;SDS011;3997;48.416;8.512;2023-06-26T09:40:34;7.40;;;6.90;;
7903;SDS011;3997;48.416;8.512;2023-06-26T09:43:03;7.80;;;7.30;;
7903;SDS011;3997;48.416;8.512;2023-06-26T09:45:32;8.18;;;7.53;;
7903;SDS011;3997;48.416;8.512;2023-06-26T09:47:59;7.57;;;7.07;;
7903;SDS011;3997;48.416;8.512;2023-06-26T09:50:26;7.88;;;7.38;;
7903;SDS011;3997;48.416;8.512;2023-06-26T09:52:52;7.65;;;7.15;;
7903;SDS011;3997;48.416;8.512;2023-06-26T09:55:19;8.20;;;7.70;;
7903;SDS011;3997;48.416;8.512;2023-06-26T09:57:46;7.80;;;7.20;;
7903;SDS011;3997;48.416;8.512;2023-06-26T10:00:13;8.48;;;7.97;;
7903;SDS011;3997;48.416;8.512;2023-06-26T10:02:41;8.00;;;7.50;;
7903;SDS011;3997;48.416;8.512;2023-06-26T10:05:08;8.27;;;7.72;;
7903;SDS011;3997;48.416;8.512;2023-06-26T10:07:34;7.88;;;7.38;;
7903;SDS011;3997;48.416;8.512;2023-06-26T10:10:02;8.23;;;7.63;;
7903;SDS011;3997;48.416;8.512;2023-06-26T10:12:29;8.15;;;7.55;;
7903;SDS011;3997;48.416;8.512;2023-06-26T10:14:58;7.90;;;7.10;;
7903;SDS011;3997;48.416;8.512;2023-06-26T10:17:27;7.75;;;7.25;;
7903;SDS011;3997;48.416;8.512;2023-06-26T10:19:55;8.13;;;7.63;;
7903;SDS011;3997;48.416;8.512;2023-06-26T10:22:25;8.52;;;7.82;;
7903;SDS011;3997;48.416;8.512;2023-06-26T10:24:53;8.48;;;7.97;;
7903;SDS011;3997;48.416;8.512;2023-06-26T10:27:23;8.50;;;7.90;;
7903;SDS011;3997;48.416;8.512;2023-06-26T10:29:50;8.18;;;7.40;;
7903;SDS011;3997;48.416;8.512;2023-06-26T10:32:18;8.60;;;8.10;;
7903;SDS011;3997;48.416;8.512;2023-06-26T10:34:46;7.82;;;7.30;;
7903;SDS011;3997;48.416;8.512;2023-06-26T10:37:14;7.78;;;7.32;;
7903;SDS011;3997;48.416;8.512;2023-06-26T10:39:47;7.85;;;7.35;;
7903;SDS011;3997;48.416;8.512;2023-06-26T10:42:15;8.75;;;8.25;;
7903;SDS011;3997;48.416;8.512;2023-06-26T10:44:42;8.52;;;7.82;;
7903;SDS011;3997;48.416;8.512;2023-06-26T10:47:09;8.10;;;7.60;;
7903;SDS011;3997;48.416;8.512;2023-06-26T10:49:36;8.30;;;7.70;;
7903;SDS011;3997;48.416;8.512;2023-06-26T10:52:04;8.75;;;8.15;;
7903;SDS011;3997;48.416;8.512;2023-06-26T10:54:32;8.00;;;7.50;;
7903;SDS011;3997;48.416;8.512;2023-06-26T10:56:58;8.20;;;7.70;;
7903;SDS011;3997;48.416;8.512;2023-06-26T10:59:26;8.10;;;7.57;;
7903;SDS011;3997;48.416;8.512;2023-06-26T11:01:54;8.32;;;7.72;;
7903;SDS011;3997;48.416;8.512;2023-06-26T11:04:35;8.00;;;7.50;;
7903;SDS011;3997;48.416;8.512;2023-06-26T11:09:55;8.25;;;7.82;;
7903;SDS011;3997;48.416;8.512;2023-06-26T11:12:34;8.25;;;7.65;;
7903;SDS011;3997;48.416;8.512;2023-06-26T11:15:02;8.02;;;7.53;;
7903;SDS011;3997;48.416;8.512;2023-06-26T11:17:28;7.78;;;7.28;;
7903;SDS011;3997;48.416;8.512;2023-06-26T11:19:55;8.32;;;7.82;;
7903;SDS011;3997;48.416;8.512;2023-06-26T11:22:22;8.30;;;7.60;;
7903;SDS011;3997;48.416;8.512;2023-06-26T11:24:49;7.90;;;7.30;;
7903;SDS011;3997;48.416;8.512;2023-06-26T11:27:18;7.78;;;7.18;;
7903;SDS011;3997;48.416;8.512;2023-06-26T11:29:47;8.10;;;7.50;;
7903;SDS011;3997;48.416;8.512;2023-06-26T11:32:13;7.70;;;7.30;;
7903;SDS011;3997;48.416;8.512;2023-06-26T11:34:40;7.95;;;7.45;;
7903;SDS011;3997;48.416;8.512;2023-06-26T11:37:08;8.02;;;7.53;;
7903;SDS011;3997;48.416;8.512;2023-06-26T11:39:34;7.78;;;7.00;;
7903;SDS011;3997;48.416;8.512;2023-06-26T11:42:02;8.32;;;7.82;;
7903;SDS011;3997;48.416;8.512;2023-06-26T11:44:30;8.27;;;7.75;;
7903;SDS011;3997;48.416;8.512;2023-06-26T11:46:57;8.18;;;7.57;;
7903;SDS011;3997;48.416;8.512;2023-06-26T11:49:24;8.02;;;7.53;;
7903;SDS011;3997;48.416;8.512;2023-06-26T11:51:51;7.50;;;7.00;;
7903;SDS011;3997;48.416;8.512;2023-06-26T11:54:28;7.82;;;7.30;;
7903;SDS011;3997;48.416;8.512;2023-06-26T11:56:55;7.72;;;7.22;;
7903;SDS011;3997;48.416;8.512;2023-06-26T11:59:22;7.65;;;7.00;;
7903;SDS011;3997;48.416;8.512;2023-06-26T12:01:50;7.25;;;6.85;;
7903;SDS011;3997;48.416;8.512;2023-06-26T12:04:18;8.15;;;7.40;;
7903;SDS011;3997;48.416;8.512;2023-06-26T12:06:46;7.80;;;7.40;;
7903;SDS011;3997;48.416;8.512;2023-06-26T12:09:13;6.88;;;6.47;;
7903;SDS011;3997;48.416;8.512;2023-06-26T12:11:41;7.93;;;7.20;;
7903;SDS011;3997;48.416;8.512;2023-06-26T12:14:08;6.90;;;6.40;;
7903;SDS011;3997;48.416;8.512;2023-06-26T12:16:36;7.53;;;7.00;;
7903;SDS011;3997;48.416;8.512;2023-06-26T12:19:04;10.35;;;7.30;;
7903;SDS011;3997;48.416;8.512;2023-06-26T12:21:43;8.85;;;7.28;;
7903;SDS011;3997;48.416;8.512;2023-06-26T12:24:13;7.93;;;6.75;;
7903;SDS011;3997;48.416;8.512;2023-06-26T12:26:41;7.15;;;6.55;;
7903;SDS011;3997;48.416;8.512;2023-06-26T12:29:08;6.55;;;6.05;;
7903;SDS011;3997;48.416;8.512;2023-06-26T12:31:39;7.18;;;6.57;;
7903;SDS011;3997;48.416;8.512;2023-06-26T12:34:09;7.80;;;7.20;;
7903;SDS011;3997;48.416;8.512;2023-06-26T12:36:40;6.70;;;6.30;;
7903;SDS011;3997;48.416;8.512;2023-06-26T12:39:08;6.40;;;5.80;;
7903;SDS011;3997;48.416;8.512;2023-06-26T12:41:35;6.70;;;6.30;;
7903;SDS011;3997;48.416;8.512;2023-06-26T12:44:01;6.45;;;6.05;;
7903;SDS011;3997;48.416;8.512;2023-06-26T12:46:34;6.65;;;6.25;;
7903;SDS011;3997;48.416;8.512;2023-06-26T12:49:01;6.88;;;6.32;;
7903;SDS011;3997;48.416;8.512;2023-06-26T12:51:29;6.55;;;6.15;;
7903;SDS011;3997;48.416;8.512;2023-06-26T12:53:55;6.25;;;5.95;;
7903;SDS011;3997;48.416;8.512;2023-06-26T12:56:22;6.95;;;6.45;;
7903;SDS011;3997;48.416;8.512;2023-06-26T12:58:48;6.60;;;6.20;;
7903;SDS011;3997;48.416;8.512;2023-06-26T13:01:15;6.57;;;6.13;;
7903;SDS011;3997;48.416;8.512;2023-06-26T13:03:45;6.97;;;6.57;;
7903;SDS011;3997;48.416;8.512;2023-06-26T13:06:11;6.95;;;6.40;;
7903;SDS011;3997;48.416;8.512;2023-06-26T13:08:41;7.18;;;6.68;;
7903;SDS011;3997;48.416;8.512;2023-06-26T13:11:08;7.35;;;6.85;;
7903;SDS011;3997;48.416;8.512;2023-06-26T13:13:34;6.88;;;6.40;;
7903;SDS011;3997;48.416;8.512;2023-06-26T13:16:01;6.28;;;5.88;;
7903;SDS011;3997;48.416;8.512;2023-06-26T13:18:27;6.80;;;6.35;;
7903;SDS011;3997;48.416;8.512;2023-06-26T13:20:54;6.72;;;6.20;;
7903;SDS011;3997;48.416;8.512;2023-06-26T13:23:20;6.25;;;5.93;;
7903;SDS011;3997;48.416;8.512;2023-06-26T13:25:48;6.85;;;6.45;;
7903;SDS011;3997;48.416;8.512;2023-06-26T13:28:15;6.70;;;6.30;;
7903;SDS011;3997;48.416;8.512;2023-06-26T13:30:42;6.75;;;6.10;;
7903;SDS011;3997;48.416;8.512;2023-06-26T13:33:08;6.70;;;6.30;;
7903;SDS011;3997;48.416;8.512;2023-06-26T13:35:36;6.18;;;5.70;;
7903;SDS011;3997;48.416;8.512;2023-06-26T13:38:02;5.97;;;5.57;;
7903;SDS011;3997;48.416;8.512;2023-06-26T13:40:28;6.43;;;6.03;;
7903;SDS011;3997;48.416;8.512;2023-06-26T13:42:56;6.30;;;5.90;;
7903;SDS011;3997;48.416;8.512;2023-06-26T13:45:23;6.05;;;5.65;;
7903;SDS011;3997;48.416;8.512;2023-06-26T13:47:49;5.85;;;5.40;;
7903;SDS011;3997;48.416;8.512;2023-06-26T13:50:15;5.63;;;5.32;;
7903;SDS011;3997;48.416;8.512;2023-06-26T13:52:42;6.32;;;5.93;;
7903;SDS011;3997;48.416;8.512;2023-06-26T13:55:08;6.28;;;5.78;;
7903;SDS011;3997;48.416;8.512;2023-06-26T13:57:35;5.93;;;5.63;;
7903;SDS011;3997;48.416;8.512;2023-06-26T14:00:09;5.60;;;5.30;;
7903;SDS011;3997;48.416;8.512;2023-06-26T14:02:37;6.40;;;5.90;;
7903;SDS011;3997;48.416;8.512;2023-06-26T14:05:03;5.63;;;5.13;;
7903;SDS011;3997;48.416;8.512;2023-06-26T14:07:30;6.45;;;6.05;;
7903;SDS011;3997;48.416;8.512;2023-06-26T14:09:57;5.80;;;5.20;;
7903;SDS011;3997;48.416;8.512;2023-06-26T14:12:23;5.82;;;5.47;;
7903;SDS011;3997;48.416;8.512;2023-06-26T14:14:50;6.40;;;5.90;;
7903;SDS011;3997;48.416;8.512;2023-06-26T14:17:18;6.35;;;5.88;;
7903;SDS011;3997;48.416;8.512;2023-06-26T14:19:44;6.32;;;5.80;;
7903;SDS011;3997;48.416;8.512;2023-06-26T14:22:11;6.40;;;5.95;;
7903;SDS011;3997;48.416;8.512;2023-06-26T14:24:38;5.97;;;5.57;;
7903;SDS011;3997;48.416;8.512;2023-06-26T14:27:04;6.03;;;5.72;;
7903;SDS011;3997;48.416;8.512;2023-06-26T14:29:30;5.72;;;5.43;;
7903;SDS011;3997;48.416;8.512;2023-06-26T14:31:57;5.93;;;5.15;;
7903;SDS011;3997;48.416;8.512;2023-06-26T14:34:25;6.00;;;5.60;;
7903;SDS011;3997;48.416;8.512;2023-06-26T14:36:51;5.75;;;5.30;;
7903;SDS011;3997;48.416;8.512;2023-06-26T14:39:17;5.35;;;5.05;;
7903;SDS011;3997;48.416;8.512;2023-06-26T14:41:44;5.30;;;5.00;;
7903;SDS011;3997;48.416;8.512;2023-06-26T14:44:12;5.68;;;5.28;;
7903;SDS011;3997;48.416;8.512;2023-06-26T14:46:38;5.47;;;5.18;;
7903;SDS011;3997;48.416;8.512;2023-06-26T14:49:05;5.45;;;5.15;;
7903;SDS011;3997;48.416;8.512;2023-06-26T14:51:33;5.55;;;5.10;;
7903;SDS011;3997;48.416;8.512;2023-06-26T14:53:59;5.90;;;5.50;;
7903;SDS011;3997;48.416;8.512;2023-06-26T14:56:26;5.90;;;5.40;;
7903;SDS011;3997;48.416;8.512;2023-06-26T14:58:52;5.68;;;5.30;;
7903;SDS011;3997;48.416;8.512;2023-06-26T15:01:19;5.82;;;5.32;;
7903;SDS011;3997;48.416;8.512;2023-06-26T15:03:45;5.20;;;4.90;;
7903;SDS011;3997;48.416;8.512;2023-06-26T15:06:12;6.35;;;5.95;;
7903;SDS011;3997;48.416;8.512;2023-06-26T15:08:40;5.78;;;5.38;;
7903;SDS011;3997;48.416;8.512;2023-06-26T15:11:06;5.65;;;5.15;;
7903;SDS011;3997;48.416;8.512;2023-06-26T15:13:32;6.53;;;5.60;;
7903;SDS011;3997;48.416;8.512;2023-06-26T15:15:59;5.65;;;5.25;;